createdAt,value
2019-05-23T00:01:21.760Z,17.40
2019-05-23T00:03:52.136Z,17.40
2019-05-23T00:06:22.695Z,17.30
2019-05-23T00:08:52.611Z,17.10
2019-05-23T00:11:30.389Z,17.00
2019-05-23T00:14:01.565Z,16.90
2019-05-23T00:16:31.869Z,16.80
2019-05-23T00:19:02.357Z,16.70
2019-05-23T00:21:32.950Z,16.70
2019-05-23T00:24:02.975Z,16.60
2019-05-23T00:26:32.559Z,16.50
2019-05-23T00:29:10.048Z,16.60
2019-05-23T00:31:35.376Z,16.70
2019-05-23T00:34:04.880Z,16.60
2019-05-23T00:36:35.573Z,16.50
2019-05-23T00:39:07.774Z,16.40
2019-05-23T00:41:37.193Z,16.40
2019-05-23T00:44:06.300Z,16.40
2019-05-23T00:46:35.145Z,16.30
2019-05-23T00:49:04.760Z,16.20
2019-05-23T00:51:35.566Z,16.20
2019-05-23T00:54:04.548Z,16.20
2019-05-23T00:56:33.776Z,16.20
2019-05-23T00:59:02.618Z,16.10
2019-05-23T01:01:31.949Z,16.20
2019-05-23T01:04:01.243Z,16.20
2019-05-23T01:06:31.148Z,16.20
2019-05-23T01:09:00.379Z,16.20
2019-05-23T01:11:29.274Z,16.20
2019-05-23T01:13:59.390Z,16.40
2019-05-23T01:16:29.886Z,16.30
2019-05-23T01:18:59.284Z,16.40
2019-05-23T01:21:44.819Z,16.50
2019-05-23T01:24:30.279Z,16.50
2019-05-23T01:26:59.327Z,16.60
2019-05-23T01:29:37.369Z,16.60
2019-05-23T01:32:01.241Z,16.60
2019-05-23T01:34:30.833Z,16.50
2019-05-23T01:37:00.735Z,16.40
2019-05-23T01:39:30.728Z,16.40
2019-05-23T01:41:59.743Z,16.30
2019-05-23T01:44:29.141Z,16.20
2019-05-23T01:46:57.989Z,16.00
2019-05-23T01:49:27.171Z,16.00
2019-05-23T01:51:56.785Z,15.90
2019-05-23T01:54:25.991Z,15.90
2019-05-23T01:56:55.005Z,15.80
2019-05-23T01:59:23.806Z,15.70
2019-05-23T02:01:53.212Z,15.70
2019-05-23T02:04:22.571Z,15.70
2019-05-23T02:06:52.178Z,15.70
2019-05-23T02:09:21.372Z,15.80
2019-05-23T02:11:50.793Z,15.90
2019-05-23T02:14:19.822Z,16.00
2019-05-23T02:16:49.396Z,16.10
2019-05-23T02:19:19.604Z,16.20
2019-05-23T02:21:49.084Z,16.10
2019-05-23T02:24:18.587Z,16.10
2019-05-23T02:26:47.973Z,16.10
2019-05-23T02:29:17.385Z,16.20
2019-05-23T02:31:46.121Z,16.20
2019-05-23T02:34:15.420Z,16.20
2019-05-23T02:36:44.299Z,16.20
2019-05-23T02:39:23.608Z,16.30
2019-05-23T02:42:05.905Z,16.20
2019-05-23T02:44:34.927Z,16.20
2019-05-23T02:47:23.151Z,16.10
2019-05-23T02:49:53.526Z,16.00
2019-05-23T02:52:38.676Z,16.00
2019-05-23T02:55:10.336Z,16.00
2019-05-23T02:57:40.542Z,16.00
2019-05-23T03:00:29.031Z,16.00
2019-05-23T03:03:00.227Z,16.10
2019-05-23T03:05:28.955Z,16.10
2019-05-23T03:08:01.271Z,16.10
2019-05-23T03:10:32.936Z,16.30
2019-05-23T03:13:04.253Z,16.30
2019-05-23T03:15:34.476Z,16.30
2019-05-23T03:18:05.576Z,16.40
2019-05-23T03:20:35.568Z,16.50
2019-05-23T03:23:12.446Z,16.60
2019-05-23T03:25:44.099Z,16.60
2019-05-23T03:28:13.984Z,16.60
2019-05-23T03:30:47.509Z,16.60
2019-05-23T03:33:17.714Z,16.70
2019-05-23T03:35:59.619Z,16.70
2019-05-23T03:38:28.545Z,16.80
2019-05-23T03:40:57.280Z,16.90
2019-05-23T03:43:26.586Z,17.00
2019-05-23T03:45:58.273Z,17.10
2019-05-23T03:48:27.897Z,17.20
2019-05-23T03:50:57.919Z,17.40
2019-05-23T03:53:28.332Z,17.50
2019-05-23T03:55:58.830Z,17.70
2019-05-23T03:58:29.844Z,17.90
2019-05-23T04:01:00.135Z,18.00
2019-05-23T04:03:29.749Z,18.20
2019-05-23T04:05:59.183Z,18.20
2019-05-23T04:08:29.098Z,18.30
2019-05-23T04:10:58.248Z,18.60
2019-05-23T04:13:27.173Z,19.10
2019-05-23T04:15:56.100Z,19.80
2019-05-23T04:18:25.084Z,20.30
2019-05-23T04:20:54.344Z,20.60
2019-05-23T04:23:23.247Z,20.60
2019-05-23T04:25:52.093Z,20.50
2019-05-23T04:28:20.983Z,20.10
2019-05-23T04:30:49.753Z,19.80
2019-05-23T04:33:18.774Z,19.50
2019-05-23T04:35:48.083Z,19.20
2019-05-23T04:38:16.990Z,18.80
2019-05-23T04:40:46.389Z,18.70
2019-05-23T04:43:15.622Z,18.60
2019-05-23T04:45:44.821Z,18.50
2019-05-23T04:48:13.667Z,18.60
2019-05-23T04:50:43.099Z,18.60
2019-05-23T04:53:12.291Z,18.60
2019-05-23T04:55:41.309Z,18.80
2019-05-23T04:58:10.029Z,19.00
2019-05-23T05:00:39.063Z,19.20
2019-05-23T05:03:08.599Z,19.60
2019-05-23T05:05:37.695Z,20.50
2019-05-23T05:08:06.502Z,21.50
2019-05-23T05:10:36.344Z,22.30
2019-05-23T05:13:05.655Z,23.20
2019-05-23T05:15:35.359Z,23.90
2019-05-23T05:18:04.364Z,24.50
2019-05-23T05:20:33.167Z,24.90
2019-05-23T05:23:02.159Z,25.20
2019-05-23T05:25:31.288Z,25.30
2019-05-23T05:28:00.187Z,25.80
2019-05-23T05:30:29.008Z,25.00
2019-05-23T05:32:57.757Z,24.60
2019-05-23T05:35:27.263Z,24.40
2019-05-23T05:37:56.260Z,24.20
2019-05-23T05:40:25.954Z,24.40
2019-05-23T05:42:55.350Z,24.40
2019-05-23T05:45:24.406Z,24.50
2019-05-23T05:47:53.329Z,24.10
2019-05-23T05:50:22.403Z,24.50
2019-05-23T05:52:51.266Z,25.00
2019-05-23T05:55:20.072Z,25.80
2019-05-23T05:57:48.795Z,25.60
2019-05-23T06:00:28.884Z,24.90
2019-05-23T06:03:04.964Z,23.70
2019-05-23T06:05:46.864Z,23.90
2019-05-23T06:08:17.247Z,23.90
2019-05-23T06:10:46.270Z,23.80
2019-05-23T06:13:15.471Z,23.80
2019-05-23T06:15:44.746Z,23.40
2019-05-23T06:18:14.688Z,23.00
2019-05-23T06:20:46.512Z,22.90
2019-05-23T06:23:15.740Z,22.60
2019-05-23T06:25:44.770Z,22.50
2019-05-23T06:28:15.060Z,22.70
2019-05-23T06:30:44.454Z,23.60
2019-05-23T06:33:23.346Z,24.20
2019-05-23T06:35:44.001Z,24.60
2019-05-23T06:38:12.929Z,24.80
2019-05-23T06:40:42.027Z,24.70
2019-05-23T06:43:10.761Z,25.30
2019-05-23T06:45:42.020Z,25.50
2019-05-23T06:48:12.968Z,25.90
2019-05-23T06:50:41.976Z,26.20
2019-05-23T06:53:10.720Z,26.10
2019-05-23T06:55:39.449Z,26.20
2019-05-23T06:58:08.567Z,26.40
2019-05-23T07:00:38.270Z,26.90
2019-05-23T07:03:07.257Z,27.10
2019-05-23T07:05:36.850Z,27.60
2019-05-23T07:08:06.853Z,27.40
2019-05-23T07:10:35.583Z,26.90
2019-05-23T07:13:04.567Z,27.00
2019-05-23T07:15:33.300Z,26.30
2019-05-23T07:18:02.246Z,26.20
2019-05-23T07:20:31.087Z,26.10
2019-05-23T07:22:59.932Z,26.30
2019-05-23T07:25:28.823Z,26.70
2019-05-23T07:27:57.828Z,27.80
2019-05-23T07:30:27.168Z,28.30
2019-05-23T07:32:56.200Z,27.60
2019-05-23T07:35:26.003Z,27.10
2019-05-23T07:37:54.949Z,26.60
2019-05-23T07:40:27.365Z,26.30
2019-05-23T07:42:56.257Z,26.20
2019-05-23T07:45:37.645Z,25.90
2019-05-23T07:48:05.931Z,25.80
2019-05-23T07:50:34.655Z,25.50
2019-05-23T07:53:04.260Z,25.20
2019-05-23T07:55:37.796Z,25.10
2019-05-23T07:58:07.344Z,25.20
2019-05-23T08:00:40.659Z,25.30
2019-05-23T08:03:09.961Z,25.30
2019-05-23T08:05:38.755Z,25.40
2019-05-23T08:08:07.828Z,25.60
2019-05-23T08:10:36.884Z,25.60
2019-05-23T08:13:05.633Z,25.30
2019-05-23T08:15:34.933Z,25.30
2019-05-23T08:18:04.623Z,25.30
2019-05-23T08:20:33.621Z,25.40
2019-05-23T08:23:02.343Z,25.40
2019-05-23T08:25:31.236Z,25.60
2019-05-23T08:27:59.972Z,25.90
2019-05-23T08:30:28.695Z,26.30
2019-05-23T08:32:57.433Z,26.30
2019-05-23T08:35:26.326Z,26.50
2019-05-23T08:37:55.148Z,25.90
2019-05-23T08:40:25.276Z,25.90
2019-05-23T08:42:54.003Z,25.80
2019-05-23T08:45:23.013Z,25.90
2019-05-23T08:47:51.758Z,26.00
2019-05-23T08:50:21.792Z,26.10
2019-05-23T08:52:50.692Z,26.50
2019-05-23T08:55:22.007Z,26.90
2019-05-23T08:57:52.126Z,27.50
2019-05-23T09:00:21.817Z,27.50
2019-05-23T09:02:51.535Z,27.30
2019-05-23T09:05:21.525Z,28.00
2019-05-23T09:07:50.644Z,29.00
2019-05-23T09:10:20.199Z,29.40
2019-05-23T09:12:49.304Z,29.90
2019-05-23T09:15:18.019Z,30.60
2019-05-23T09:17:53.102Z,30.90
2019-05-23T09:20:19.480Z,30.10
2019-05-23T09:22:48.225Z,29.30
2019-05-23T09:25:17.573Z,28.60
2019-05-23T09:27:47.599Z,28.40
2019-05-23T09:30:19.019Z,29.00
2019-05-23T09:32:47.931Z,29.10
2019-05-23T09:35:21.449Z,29.10
2019-05-23T09:37:48.112Z,29.90
2019-05-23T09:40:16.874Z,29.40
2019-05-23T09:42:45.780Z,29.30
2019-05-23T09:45:14.641Z,28.80
2019-05-23T09:47:43.445Z,28.40
2019-05-23T09:50:16.097Z,28.60
2019-05-23T09:52:44.881Z,28.90
2019-05-23T09:55:14.244Z,29.60
2019-05-23T09:57:42.958Z,30.00
2019-05-23T10:00:13.703Z,30.10
2019-05-23T10:02:42.642Z,29.70
2019-05-23T10:05:13.049Z,29.20
2019-05-23T10:07:41.957Z,28.90
2019-05-23T10:10:13.136Z,28.80
2019-05-23T10:12:41.858Z,28.90
2019-05-23T10:15:29.755Z,28.60
2019-05-23T10:18:00.978Z,29.20
2019-05-23T10:20:32.306Z,29.80
2019-05-23T10:23:01.026Z,30.30
2019-05-23T10:25:29.828Z,30.60
2019-05-23T10:27:58.600Z,30.80
2019-05-23T10:30:27.387Z,30.50
2019-05-23T10:32:56.121Z,31.10
2019-05-23T10:35:26.745Z,31.30
2019-05-23T10:37:55.615Z,31.00
2019-05-23T10:40:24.506Z,31.20
2019-05-23T10:42:53.311Z,31.10
2019-05-23T10:45:22.712Z,30.40
2019-05-23T10:47:51.503Z,31.00
2019-05-23T10:50:20.262Z,31.00
2019-05-23T10:52:48.984Z,31.20
2019-05-23T10:55:17.845Z,31.40
2019-05-23T10:57:46.764Z,32.00
2019-05-23T11:00:17.420Z,32.30
2019-05-23T11:02:46.531Z,32.20
2019-05-23T11:05:15.635Z,32.00
2019-05-23T11:07:44.530Z,31.60
2019-05-23T11:10:15.380Z,31.00
2019-05-23T11:12:44.094Z,30.70
2019-05-23T11:15:13.133Z,30.10
2019-05-23T11:17:41.842Z,30.20
2019-05-23T11:20:12.747Z,30.00
2019-05-23T11:22:42.371Z,29.70
2019-05-23T11:25:13.148Z,29.90
2019-05-23T11:27:42.344Z,29.30
2019-05-23T11:30:13.311Z,29.50
2019-05-23T11:32:42.274Z,29.10
2019-05-23T11:35:11.100Z,28.80
2019-05-23T11:37:41.927Z,29.30
2019-05-23T11:40:10.768Z,28.40
2019-05-23T11:42:39.493Z,28.60
2019-05-23T11:45:08.558Z,29.20
2019-05-23T11:47:37.549Z,29.50
2019-05-23T11:50:08.288Z,29.70
2019-05-23T11:52:37.445Z,29.40
2019-05-23T11:55:07.151Z,29.20
2019-05-23T11:57:37.715Z,29.70
2019-05-23T12:00:09.291Z,30.40
2019-05-23T12:02:39.972Z,30.40
2019-05-23T12:05:10.724Z,30.00
2019-05-23T12:07:39.418Z,29.90
2019-05-23T12:10:08.338Z,29.50
2019-05-23T12:12:37.087Z,29.20
2019-05-23T12:15:10.426Z,28.70
2019-05-23T12:17:39.203Z,28.80
2019-05-23T12:20:08.408Z,28.80
2019-05-23T12:22:37.278Z,29.30
2019-05-23T12:25:20.796Z,29.40
2019-05-23T12:27:38.838Z,29.40
2019-05-23T12:30:10.994Z,28.70
2019-05-23T12:32:39.717Z,28.20
2019-05-23T12:35:11.528Z,28.30
2019-05-23T12:37:39.015Z,28.60
2019-05-23T12:40:10.356Z,28.70
2019-05-23T12:42:39.097Z,29.10
2019-05-23T12:45:08.796Z,29.80
2019-05-23T12:47:39.301Z,30.30
2019-05-23T12:50:09.935Z,30.40
2019-05-23T12:52:38.839Z,30.10
2019-05-23T12:55:07.810Z,29.90
2019-05-23T12:57:36.712Z,29.70
2019-05-23T13:00:14.039Z,29.40
2019-05-23T13:02:42.851Z,29.50
2019-05-23T13:05:12.381Z,28.70
2019-05-23T13:07:41.117Z,28.50
2019-05-23T13:10:10.042Z,28.40
2019-05-23T13:12:38.799Z,28.20
2019-05-23T13:15:08.219Z,28.20
2019-05-23T13:17:37.020Z,28.20
2019-05-23T13:20:09.325Z,27.80
2019-05-23T13:22:38.096Z,28.20
2019-05-23T13:25:08.316Z,28.00
2019-05-23T13:27:37.940Z,28.20
2019-05-23T13:30:08.061Z,28.50
2019-05-23T13:32:37.059Z,28.10
2019-05-23T13:35:07.349Z,28.00
2019-05-23T13:37:52.243Z,27.40
2019-05-23T13:40:08.481Z,26.80
2019-05-23T13:42:37.659Z,26.30
2019-05-23T13:45:09.749Z,26.10
2019-05-23T13:47:38.526Z,25.80
2019-05-23T13:50:07.658Z,25.60
2019-05-23T13:52:36.554Z,25.50
2019-05-23T13:55:06.900Z,25.40
2019-05-23T13:57:36.565Z,25.40
2019-05-23T14:00:09.813Z,25.40
2019-05-23T14:02:38.584Z,25.50
2019-05-23T14:05:08.783Z,25.40
2019-05-23T14:07:38.595Z,25.40
2019-05-23T14:10:10.993Z,25.20
2019-05-23T14:12:40.084Z,25.20
2019-05-23T14:15:10.945Z,25.40
2019-05-23T14:17:41.361Z,25.60
2019-05-23T14:20:10.345Z,25.50
2019-05-23T14:22:40.754Z,25.60
2019-05-23T14:25:09.936Z,25.90
2019-05-23T14:27:42.839Z,25.70
2019-05-23T14:30:14.764Z,25.50
2019-05-23T14:32:45.751Z,25.50
2019-05-23T14:35:16.138Z,25.40
2019-05-23T14:37:46.783Z,25.70
2019-05-23T14:40:15.572Z,25.70
2019-05-23T14:42:54.939Z,25.50
2019-05-23T14:45:25.512Z,25.50
2019-05-23T14:47:55.897Z,25.40
2019-05-23T14:50:42.480Z,25.10
2019-05-23T14:53:13.090Z,24.60
2019-05-23T14:55:41.879Z,24.40
2019-05-23T14:58:10.993Z,23.80
2019-05-23T15:00:40.290Z,23.70
2019-05-23T15:03:09.187Z,23.50
2019-05-23T15:05:37.996Z,23.60
2019-05-23T15:08:07.148Z,23.70
2019-05-23T15:10:35.969Z,23.50
2019-05-23T15:13:05.032Z,23.50
2019-05-23T15:15:33.853Z,23.40
2019-05-23T15:18:02.664Z,23.30
2019-05-23T15:20:31.373Z,23.20
2019-05-23T15:23:00.294Z,22.90
2019-05-23T15:25:29.083Z,22.90
2019-05-23T15:27:57.810Z,22.80
2019-05-23T15:30:26.527Z,22.60
2019-05-23T15:32:55.358Z,22.70
2019-05-23T15:35:25.056Z,22.60
2019-05-23T15:37:53.908Z,22.40
2019-05-23T15:40:22.922Z,22.10
2019-05-23T15:42:51.888Z,21.80
2019-05-23T15:45:20.749Z,21.50
2019-05-23T15:47:49.540Z,21.30
2019-05-23T15:50:35.137Z,21.50
2019-05-23T15:53:17.697Z,21.30
2019-05-23T15:56:25.488Z,21.30
2019-05-23T15:58:52.368Z,21.30
2019-05-23T16:01:25.699Z,21.10
2019-05-23T16:03:56.115Z,21.10
2019-05-23T16:06:29.457Z,20.70
2019-05-23T16:08:58.287Z,20.40
2019-05-23T16:11:27.390Z,20.20
2019-05-23T16:13:57.037Z,20.10
2019-05-23T16:16:27.267Z,20.30
2019-05-23T16:18:56.094Z,20.40
2019-05-23T16:21:25.148Z,20.50
2019-05-23T16:23:53.899Z,20.50
2019-05-23T16:26:22.630Z,20.50
2019-05-23T16:28:51.339Z,20.50
2019-05-23T16:31:20.110Z,20.30
2019-05-23T16:33:48.827Z,20.20
2019-05-23T16:36:17.861Z,20.20
2019-05-23T16:38:46.620Z,20.20
2019-05-23T16:41:15.562Z,20.00
2019-05-23T16:43:44.459Z,20.00
2019-05-23T16:46:13.220Z,20.10
2019-05-23T16:48:42.169Z,20.00
2019-05-23T16:51:11.815Z,20.10
2019-05-23T16:53:40.804Z,20.10
2019-05-23T16:56:13.951Z,19.90
2019-05-23T16:58:47.089Z,19.70
2019-05-23T17:01:26.751Z,19.50
2019-05-23T17:03:57.734Z,19.40
2019-05-23T17:06:28.410Z,19.40
2019-05-23T17:08:58.780Z,19.40
2019-05-23T17:11:45.175Z,19.20
2019-05-23T17:14:27.584Z,19.20
2019-05-23T17:17:09.826Z,19.30
2019-05-23T17:19:46.633Z,19.30
2019-05-23T17:22:17.070Z,19.30
2019-05-23T17:24:47.456Z,19.30
2019-05-23T17:27:17.933Z,19.20
2019-05-23T17:29:51.292Z,19.10
2019-05-23T17:32:21.650Z,19.10
2019-05-23T17:34:50.400Z,19.10
2019-05-23T17:37:20.431Z,19.10
2019-05-23T17:39:52.720Z,19.20
2019-05-23T17:42:19.569Z,19.20
2019-05-23T17:44:48.315Z,19.10
2019-05-23T17:47:17.527Z,19.10
2019-05-23T17:49:46.392Z,19.00
2019-05-23T17:52:15.179Z,19.00
2019-05-23T17:54:44.111Z,19.00
2019-05-23T17:57:13.277Z,19.00
2019-05-23T17:59:42.034Z,18.90
2019-05-23T18:02:12.037Z,18.80
2019-05-23T18:04:41.153Z,18.90
2019-05-23T18:07:10.605Z,18.80
2019-05-23T18:09:39.614Z,18.70
2019-05-23T18:12:08.515Z,18.60
2019-05-23T18:14:37.441Z,18.60
2019-05-23T18:17:06.537Z,18.50
2019-05-23T18:19:35.543Z,18.60
2019-05-23T18:22:05.687Z,18.60
2019-05-23T18:24:34.649Z,18.60
2019-05-23T18:27:03.783Z,18.50
2019-05-23T18:29:32.887Z,18.50
2019-05-23T18:32:03.086Z,18.30
2019-05-23T18:34:32.308Z,18.20
2019-05-23T18:37:01.240Z,18.20
2019-05-23T18:39:30.778Z,18.20
2019-05-23T18:41:59.660Z,18.30
2019-05-23T18:44:28.661Z,18.20
2019-05-23T18:46:59.479Z,18.20
2019-05-23T18:49:28.443Z,18.10
2019-05-23T18:51:57.206Z,18.10
2019-05-23T18:54:25.940Z,18.10
2019-05-23T18:56:54.664Z,18.10
2019-05-23T18:59:23.456Z,18.10
2019-05-23T19:01:52.308Z,18.10
2019-05-23T19:04:21.209Z,18.00
2019-05-23T19:06:51.349Z,18.00
2019-05-23T19:09:21.755Z,17.90
2019-05-23T19:11:50.662Z,17.90
2019-05-23T19:14:20.591Z,17.90
2019-05-23T19:16:49.403Z,17.70
2019-05-23T19:19:18.261Z,17.70
2019-05-23T19:21:47.207Z,17.70
2019-05-23T19:24:16.025Z,17.60
2019-05-23T19:26:45.931Z,17.60
2019-05-23T19:29:14.710Z,17.60
2019-05-23T19:31:43.415Z,17.60
2019-05-23T19:34:12.199Z,17.50
2019-05-23T19:36:41.112Z,17.40
2019-05-23T19:39:11.668Z,17.30
2019-05-23T19:41:40.427Z,17.40
2019-05-23T19:44:09.270Z,17.50
2019-05-23T19:46:38.211Z,17.50
2019-05-23T19:49:07.139Z,17.30
2019-05-23T19:51:35.863Z,17.20
2019-05-23T19:54:06.465Z,17.20
2019-05-23T19:56:35.868Z,17.20
2019-05-23T19:59:04.618Z,17.10
2019-05-23T20:01:37.761Z,17.10
2019-05-23T20:04:07.204Z,17.00
2019-05-23T20:06:36.217Z,17.00
2019-05-23T20:09:09.676Z,17.00
2019-05-23T20:11:53.161Z,17.00
2019-05-23T20:14:09.203Z,17.00
2019-05-23T20:16:38.438Z,17.00
2019-05-23T20:19:07.167Z,17.00
2019-05-23T20:21:36.291Z,17.00
2019-05-23T20:24:05.281Z,17.00
2019-05-23T20:26:34.011Z,17.00
2019-05-23T20:29:03.429Z,17.00
2019-05-23T20:31:32.288Z,16.90
2019-05-23T20:34:01.134Z,16.80
2019-05-23T20:36:29.879Z,16.80
2019-05-23T20:38:58.625Z,16.80
2019-05-23T20:41:27.430Z,16.90
2019-05-23T20:43:56.233Z,16.90
2019-05-23T20:46:25.549Z,16.90
2019-05-23T20:48:54.299Z,16.90
2019-05-23T20:51:23.613Z,16.80
2019-05-23T20:53:52.619Z,16.70
2019-05-23T20:56:21.408Z,16.70
2019-05-23T20:58:50.138Z,16.60
2019-05-23T21:01:23.188Z,16.60
2019-05-23T21:03:52.870Z,16.60
2019-05-23T21:06:21.676Z,16.60
2019-05-23T21:08:50.453Z,16.50
2019-05-23T21:11:19.175Z,16.50
2019-05-23T21:13:48.087Z,16.40
2019-05-23T21:16:17.092Z,16.40
2019-05-23T21:18:49.255Z,16.50
2019-05-23T21:21:16.272Z,16.60
2019-05-23T21:23:45.007Z,16.60
2019-05-23T21:26:13.727Z,16.60
2019-05-23T21:28:42.453Z,16.50
2019-05-23T21:31:12.837Z,16.60
2019-05-23T21:33:41.624Z,16.60
2019-05-23T21:36:10.410Z,16.60
2019-05-23T21:38:39.136Z,16.60
2019-05-23T21:41:07.887Z,16.60
2019-05-23T21:43:36.640Z,16.60
2019-05-23T21:46:05.573Z,16.60
2019-05-23T21:48:34.294Z,16.60
2019-05-23T21:51:03.061Z,16.60
2019-05-23T21:53:31.779Z,16.50
2019-05-23T21:56:00.576Z,16.50
2019-05-23T21:58:29.484Z,16.40
2019-05-23T22:01:07.601Z,16.40
2019-05-23T22:03:47.772Z,16.40
2019-05-23T22:06:20.561Z,16.30
2019-05-23T22:08:49.339Z,16.20
2019-05-23T22:11:18.293Z,16.10
2019-05-23T22:13:47.056Z,16.00
2019-05-23T22:16:15.922Z,15.90
2019-05-23T22:18:45.168Z,15.90
2019-05-23T22:21:14.695Z,15.80
2019-05-23T22:23:43.440Z,15.70
2019-05-23T22:26:12.164Z,15.70
2019-05-23T22:28:41.149Z,15.60
2019-05-23T22:31:10.643Z,15.60
2019-05-23T22:33:41.041Z,15.40
2019-05-23T22:36:10.138Z,15.50
2019-05-23T22:38:39.267Z,15.50
2019-05-23T22:41:08.007Z,15.50
2019-05-23T22:43:36.900Z,15.50
2019-05-23T22:46:05.707Z,15.40
2019-05-23T22:48:34.424Z,15.40
2019-05-23T22:51:03.160Z,15.40
2019-05-23T22:53:31.884Z,15.40
2019-05-23T22:56:00.739Z,15.20
2019-05-23T22:58:29.461Z,15.30
2019-05-23T23:00:58.285Z,15.30
2019-05-23T23:03:27.083Z,15.20
2019-05-23T23:05:55.931Z,15.20
2019-05-23T23:08:24.828Z,15.30
2019-05-23T23:10:53.543Z,15.30
2019-05-23T23:13:37.710Z,15.20
2019-05-23T23:15:53.617Z,15.20
2019-05-23T23:18:22.348Z,15.20
2019-05-23T23:20:51.251Z,15.10
2019-05-23T23:23:20.097Z,15.10
2019-05-23T23:25:48.826Z,15.10
2019-05-23T23:28:17.575Z,15.00
2019-05-23T23:30:47.934Z,15.00
2019-05-23T23:33:16.692Z,15.10
2019-05-23T23:35:45.503Z,15.10
2019-05-23T23:38:14.274Z,15.10
2019-05-23T23:40:43.000Z,15.10
2019-05-23T23:43:11.738Z,15.10
2019-05-23T23:45:58.482Z,15.10
2019-05-23T23:48:45.187Z,15.20
2019-05-23T23:51:31.577Z,15.20
2019-05-23T23:54:18.010Z,15.10
2019-05-23T23:57:04.477Z,15.20
2019-05-23T23:59:32.540Z,15.30
